Time;durP1;ratioP1;P1;durP2;ratioP2;P2;SDS_P1;SDS_P2;PMS_P1;PMS_P2;Temp;Humidity;BMP_temperature;BMP_pressure;BME280_temperature;BME280_humidity;BME280_pressure;Samples;Min_cycle;Max_cycle;Signal;HPM_P1;HPM_P2
2022/11/08 00:04:23;;;;;;;7.15;3.22;;;5.80;99.90;;;3.53;100.00;100631.00;10505818;28;20060;-83
2022/11/08 00:14:50;;;;;;;8.77;4.27;;;5.80;99.90;;;3.42;100.00;100634.44;10506402;28;20060;-83
2022/11/08 00:19:54;;;;;;;9.17;4.80;;;5.80;99.90;;;3.38;100.00;100632.97;10489078;28;20052;-84
2022/11/08 00:24:57;;;;;;;9.40;5.33;;;5.70;99.90;;;3.33;100.00;100640.34;10480877;28;20061;-84
2022/11/08 00:30:00;;;;;;;8.47;4.73;;;5.60;99.90;;;3.27;100.00;100640.78;10476112;28;20057;-84
2022/11/08 00:35:05;;;;;;;8.73;4.63;;;5.60;99.90;;;3.23;100.00;100637.53;10465994;28;20076;-83
2022/11/08 00:40:09;;;;;;;8.80;4.97;;;5.50;99.90;;;3.20;100.00;100639.56;10513768;28;20152;-83
2022/11/08 00:45:12;;;;;;;9.47;4.67;;;5.50;99.90;;;3.15;100.00;100624.13;10478930;28;20061;-83
2022/11/08 00:50:15;;;;;;;6.27;4.03;;;5.50;99.90;;;3.15;100.00;100625.91;10507544;28;20116;-83
2022/11/08 00:55:18;;;;;;;5.93;3.20;;;5.50;99.90;;;3.08;100.00;100637.81;10482489;28;20482;-82
2022/11/08 01:00:22;;;;;;;7.23;3.97;;;5.40;99.90;;;3.03;100.00;100632.03;10482542;28;20144;-82
2022/11/08 01:05:24;;;;;;;9.27;4.17;;;5.40;99.90;;;2.99;100.00;100641.91;10521345;28;20166;-82
2022/11/08 01:10:27;;;;;;;6.03;3.20;;;5.30;99.90;;;2.95;100.00;100645.72;10537231;28;20069;-83
2022/11/08 01:15:39;;;;;;;6.63;3.73;;;5.30;99.90;;;2.91;100.00;100645.06;10485621;28;20064;-82
2022/11/08 01:20:45;;;;;;;6.17;3.57;;;5.30;99.90;;;2.85;100.00;100635.00;10456181;28;20191;-82
2022/11/08 01:25:48;;;;;;;10.63;4.37;;;5.20;99.90;;;2.84;100.00;100635.97;10490651;28;20424;-82
2022/11/08 01:30:51;;;;;;;7.17;3.37;;;5.20;99.90;;;2.82;100.00;100630.00;10519842;28;20077;-82
2022/11/08 01:35:54;;;;;;;9.80;4.57;;;5.20;99.90;;;2.77;100.00;100645.22;10537936;28;20118;-84
2022/11/08 01:40:57;;;;;;;7.87;3.40;;;5.10;99.90;;;2.69;100.00;100627.34;10517557;28;20063;-84
2022/11/08 01:46:11;;;;;;;8.70;3.13;;;5.10;99.90;;;2.64;100.00;100624.25;10515849;28;20084;-84
2022/11/08 01:51:19;;;;;;;6.43;2.97;;;5.00;99.90;;;2.57;100.00;100635.25;10503721;28;20572;-84
2022/11/08 01:56:22;;;;;;;8.53;4.00;;;4.90;99.90;;;2.51;100.00;100626.00;10519717;28;20072;-84
2022/11/08 02:01:25;;;;;;;8.53;3.93;;;4.90;99.90;;;2.46;100.00;100633.38;10471691;28;20084;-85
2022/11/08 02:06:30;;;;;;;9.30;3.80;;;4.80;99.90;;;2.41;100.00;100620.56;10533254;28;20060;-83
2022/11/08 02:11:35;;;;;;;7.23;3.97;;;4.80;99.90;;;2.40;100.00;100621.53;10503928;28;20140;-83
2022/11/08 02:16:38;;;;;;;10.17;4.90;;;4.80;99.90;;;2.42;100.00;100614.38;10491888;28;20500;-83
2022/11/08 02:21:57;;;;;;;11.57;4.17;;;4.80;99.90;;;2.50;100.00;100623.50;10518246;28;20092;-83
2022/11/08 02:27:00;;;;;;;7.83;3.60;;;4.90;99.90;;;2.53;100.00;100618.91;10484884;28;20065;-83
2022/11/08 02:32:05;;;;;;;9.13;3.67;;;4.90;99.90;;;2.57;100.00;100609.84;10467946;28;20061;-83
2022/11/08 02:37:09;;;;;;;7.27;3.90;;;5.00;99.90;;;2.61;100.00;100620.97;10502042;28;20111;-84
2022/11/08 02:42:18;;;;;;;11.67;4.23;;;5.00;99.90;;;2.66;100.00;100621.50;10518350;28;20096;-83
2022/11/08 02:47:22;;;;;;;5.30;3.07;;;5.00;99.90;;;2.69;100.00;100622.09;10475591;28;20065;-82
2022/11/08 02:52:25;;;;;;;10.47;4.13;;;5.10;99.90;;;2.76;100.00;100624.31;10488607;28;20056;-83
2022/11/08 02:57:28;;;;;;;7.43;3.87;;;5.10;99.90;;;2.80;100.00;100623.16;10501937;28;20516;-83
2022/11/08 03:02:31;;;;;;;8.13;3.30;;;5.10;99.90;;;2.84;100.00;100622.00;10522099;28;20147;-83
2022/11/08 03:07:34;;;;;;;11.37;3.77;;;5.20;99.90;;;2.88;100.00;100621.69;10443513;28;20060;-83
2022/11/08 03:12:38;;;;;;;8.63;3.30;;;5.20;99.90;;;2.93;100.00;100622.16;10507384;28;20060;-83
2022/11/08 03:17:41;;;;;;;11.17;4.07;;;5.30;99.90;;;2.98;100.00;100623.66;10515770;28;20151;-83
2022/11/08 03:22:45;;;;;;;9.10;4.70;;;5.30;99.90;;;3.02;100.00;100625.13;10499468;28;20083;-83
2022/11/08 03:27:48;;;;;;;10.33;4.67;;;5.30;99.90;;;3.05;100.00;100630.97;10497242;28;20066;-83
2022/11/08 03:32:52;;;;;;;11.77;5.23;;;5.40;99.90;;;3.08;100.00;100629.94;10498578;28;20057;-83
2022/11/08 03:37:56;;;;;;;11.70;4.73;;;5.40;99.90;;;3.11;100.00;100627.06;10484277;28;20067;-83
2022/11/08 03:42:59;;;;;;;11.63;4.70;;;5.50;99.90;;;3.14;100.00;100634.75;10471441;28;20061;-84
2022/11/08 03:48:02;;;;;;;12.20;4.40;;;5.50;99.90;;;3.16;100.00;100632.84;10488676;28;20061;-84
2022/11/08 03:53:05;;;;;;;7.37;3.60;;;5.50;99.90;;;3.21;100.00;100628.94;10508496;28;20064;-84
2022/11/08 03:58:08;;;;;;;11.23;4.47;;;5.50;99.90;;;3.24;100.00;100620.00;10530805;28;20428;-84
2022/11/08 04:03:11;;;;;;;8.30;4.00;;;5.50;99.90;;;3.28;100.00;100618.81;10527770;28;20139;-84
2022/11/08 04:08:14;;;;;;;8.43;3.90;;;5.60;99.90;;;3.31;100.00;100625.66;10511133;28;20057;-84
2022/11/08 04:24:00;;;;;;;8.40;3.97;;;5.60;99.90;;;3.33;100.00;100619.31;10510620;28;20136;-84
2022/11/08 04:29:03;;;;;;;4.87;2.83;;;5.70;99.90;;;3.30;100.00;100616.94;10502757;28;20144;-84
2022/11/08 04:34:07;;;;;;;5.97;3.13;;;5.60;99.90;;;3.29;100.00;100619.66;10491578;28;20501;-83
2022/11/08 04:39:10;;;;;;;8.73;3.83;;;5.60;99.90;;;3.31;100.00;100617.78;10526639;28;20131;-84
2022/11/08 04:44:14;;;;;;;8.37;3.90;;;5.60;99.90;;;3.32;100.00;100617.66;10499320;28;20065;-84
2022/11/08 04:49:17;;;;;;;8.03;4.17;;;5.60;99.90;;;3.34;100.00;100618.38;10488644;28;20065;-84
2022/11/08 04:54:20;;;;;;;10.50;3.50;;;5.60;99.90;;;3.37;100.00;100609.44;10539529;28;20065;-84
2022/11/08 04:59:23;;;;;;;8.17;4.63;;;5.70;99.90;;;3.40;100.00;100615.31;10487378;28;20123;-86
2022/11/08 05:04:26;;;;;;;9.10;5.03;;;5.70;99.90;;;3.42;100.00;100621.31;10502725;27;20064;-84
2022/11/08 05:09:29;;;;;;;8.73;4.07;;;5.70;99.90;;;3.42;100.00;100609.97;10503717;28;20068;-81
2022/11/08 05:14:32;;;;;;;8.23;4.03;;;5.70;99.90;;;3.40;100.00;100619.72;10519139;28;20084;-81
2022/11/08 05:24:56;;;;;;;9.53;5.50;;;5.70;99.90;;;3.39;100.00;100629.38;10523203;28;20065;-82
2022/11/08 05:29:59;;;;;;;16.03;7.53;;;5.70;99.90;;;3.37;100.00;100626.06;10507392;28;20256;-81
2022/11/08 05:35:02;;;;;;;19.17;8.20;;;5.70;99.90;;;3.40;100.00;100625.81;10485919;28;20505;-81
2022/11/08 05:40:06;;;;;;;15.53;8.17;;;5.70;99.90;;;3.45;100.00;100639.44;10521108;28;20114;-81
2022/11/08 05:45:09;;;;;;;11.53;5.07;;;5.80;99.90;;;3.50;100.00;100644.38;10502557;28;20057;-81
2022/11/08 05:50:13;;;;;;;13.03;6.27;;;5.80;99.90;;;3.46;100.00;100645.53;10505710;28;20092;-81
2022/11/08 05:55:21;;;;;;;15.57;7.23;;;5.80;99.90;;;3.39;100.00;100647.78;10461958;28;20483;-81
2022/11/08 06:00:24;;;;;;;16.50;7.03;;;5.70;99.90;;;3.40;100.00;100651.25;10492593;28;20065;-81
2022/11/08 06:05:27;;;;;;;18.17;8.23;;;5.70;99.90;;;3.37;100.00;100636.56;10516105;28;20069;-81
2022/11/08 06:10:29;;;;;;;13.60;7.03;;;5.70;99.90;;;3.44;100.00;100653.53;10516685;28;20063;-81
2022/11/08 06:15:33;;;;;;;12.57;6.37;;;5.70;99.90;;;3.46;100.00;100651.63;10493396;28;20053;-82
2022/11/08 06:20:36;;;;;;;11.83;6.80;;;5.70;99.90;;;3.47;100.00;100666.44;10522697;28;20058;-82
2022/11/08 06:25:39;;;;;;;13.57;7.27;;;5.80;99.90;;;3.52;100.00;100670.53;10462877;28;20068;-82
2022/11/08 06:30:48;;;;;;;19.93;7.47;;;5.80;99.90;;;3.53;100.00;100673.06;10530351;28;20057;-82
2022/11/08 06:35:51;;;;;;;15.07;6.47;;;5.80;99.90;;;3.60;100.00;100670.81;10454757;28;20057;-82
2022/11/08 06:40:58;;;;;;;10.47;5.80;;;5.90;99.90;;;3.67;100.00;100675.53;10499481;28;20056;-82
2022/11/08 06:46:01;;;;;;;14.93;6.83;;;5.90;99.90;;;3.70;100.00;100675.28;10513468;28;20061;-82
2022/11/08 06:51:04;;;;;;;14.53;6.63;;;6.00;99.90;;;3.74;100.00;100682.00;10462823;28;20421;-83
2022/11/08 06:56:08;;;;;;;16.90;7.23;;;6.00;99.90;;;3.79;100.00;100688.72;10519602;28;20053;-82
2022/11/08 07:01:12;;;;;;;16.23;7.37;;;6.00;99.90;;;3.82;100.00;100696.38;10518784;28;20053;-82
2022/11/08 07:06:15;;;;;;;14.93;7.03;;;6.00;99.90;;;3.88;100.00;100696.75;10486732;28;20092;-82
2022/11/08 07:11:18;;;;;;;21.40;7.73;;;6.10;99.90;;;3.91;100.00;100698.34;10484957;28;20054;-82
2022/11/08 07:16:21;;;;;;;20.73;8.03;;;6.20;99.90;;;3.91;100.00;100699.19;10486999;28;20068;-83
2022/11/08 07:21:24;;;;;;;21.60;7.87;;;6.20;99.90;;;3.89;100.00;100700.22;10508492;28;20463;-82
2022/11/08 07:26:26;;;;;;;16.73;8.80;;;6.10;99.90;;;3.93;100.00;100688.53;10501266;28;20065;-82
2022/11/08 07:31:29;;;;;;;13.57;8.17;;;6.20;99.90;;;4.02;100.00;100703.66;10500069;28;20401;-82
2022/11/08 07:36:32;;;;;;;15.57;8.83;;;6.30;99.90;;;4.12;100.00;100698.53;10501846;28;20061;-82
2022/11/08 07:41:35;;;;;;;21.20;9.93;;;6.40;99.90;;;4.20;100.00;100706.72;10457505;28;20057;-82
2022/11/08 07:46:38;;;;;;;10.47;6.40;;;6.50;99.90;;;4.29;100.00;100703.38;10476784;28;20421;-79
2022/11/08 07:51:41;;;;;;;12.77;7.70;;;6.60;99.90;;;4.29;100.00;100703.38;10504788;28;20061;-82
2022/11/08 07:56:44;;;;;;;14.77;8.47;;;6.60;99.90;;;4.29;100.00;100701.59;10484129;28;20166;-82
2022/11/08 08:01:47;;;;;;;12.70;7.70;;;6.60;99.90;;;4.37;100.00;100701.00;10534010;28;20061;-83
2022/11/08 08:06:50;;;;;;;9.97;5.90;;;6.60;99.90;;;4.39;100.00;100696.47;10500240;28;20057;-82
2022/11/08 08:11:53;;;;;;;12.90;7.30;;;6.60;99.90;;;4.42;100.00;100704.13;10516758;28;20100;-82
2022/11/08 08:16:56;;;;;;;15.10;7.73;;;6.60;99.90;;;4.52;100.00;100709.53;10532910;28;20061;-82
2022/11/08 08:21:59;;;;;;;16.90;9.30;;;6.70;99.90;;;4.65;100.00;100709.44;10452860;28;20092;-83
2022/11/08 08:27:02;;;;;;;16.20;8.67;;;6.90;99.90;;;4.78;100.00;100711.00;10499689;28;20084;-82
2022/11/08 08:32:05;;;;;;;17.40;9.33;;;7.00;99.90;;;4.90;100.00;100705.75;10469267;28;20061;-82
2022/11/08 08:37:08;;;;;;;13.87;7.33;;;7.20;99.90;;;5.04;100.00;100710.81;10475731;28;20061;-82
2022/11/08 08:42:11;;;;;;;15.80;8.13;;;7.30;99.90;;;5.16;100.00;100719.50;10492520;28;20058;-82
2022/11/08 08:47:14;;;;;;;15.70;8.03;;;7.40;99.90;;;5.25;100.00;100719.66;10509248;28;20063;-82
2022/11/08 08:52:17;;;;;;;14.07;7.50;;;7.50;99.90;;;5.32;100.00;100725.25;10499365;28;20087;-82
2022/11/08 08:57:20;;;;;;;13.53;7.47;;;7.60;99.90;;;5.37;100.00;100723.09;10533050;28;20057;-82
2022/11/08 09:02:23;;;;;;;14.17;7.47;;;7.60;99.90;;;5.40;100.00;100728.16;10498000;28;20092;-82
2022/11/08 09:07:26;;;;;;;17.13;8.83;;;7.70;99.90;;;5.51;100.00;100728.09;10522351;28;20139;-82
2022/11/08 09:12:29;;;;;;;12.37;7.00;;;7.80;99.90;;;5.58;100.00;100737.22;10522788;28;20143;-82
2022/11/08 09:17:32;;;;;;;14.83;8.33;;;7.90;99.90;;;5.63;100.00;100750.03;10505094;28;20089;-82
2022/11/08 09:22:37;;;;;;;19.23;9.67;;;7.90;99.90;;;5.70;100.00;100745.97;10506449;28;20053;-82
2022/11/08 09:27:40;;;;;;;18.43;9.50;;;8.00;99.90;;;5.88;100.00;100748.91;10489172;28;20060;-82
2022/11/08 09:32:43;;;;;;;17.93;8.30;;;8.10;99.90;;;6.00;100.00;100733.88;10503580;28;20508;-82
2022/11/08 09:38:03;;;;;;;19.47;9.80;;;8.30;99.90;;;6.10;100.00;100729.53;10491356;28;20049;-82
2022/11/08 09:43:38;;;;;;;16.10;8.40;;;8.40;99.90;;;6.16;100.00;100734.31;10490858;28;20060;-82
2022/11/08 09:48:44;;;;;;;17.40;8.33;;;8.50;99.90;;;6.24;100.00;100738.94;10450559;28;20071;-82
2022/11/08 09:53:57;;;;;;;18.73;9.73;;;8.50;99.90;;;6.30;100.00;100736.69;10538471;28;20061;-82
2022/11/08 09:59:19;;;;;;;22.57;10.33;;;8.60;99.90;;;6.37;100.00;100731.72;10485273;28;20152;-82
2022/11/08 10:04:24;;;;;;;;;;;8.70;99.90;;;6.41;100.00;100719.91;10504434;28;20425;-81
2022/11/08 10:09:58;;;;;;;20.00;9.67;;;8.70;99.90;;;6.47;100.00;100723.84;10503715;28;19929;-81
2022/11/08 10:15:29;;;;;;;21.20;11.20;;;8.80;99.90;;;6.48;100.00;100720.25;10474686;28;20064;-81
2022/11/08 10:21:09;;;;;;;21.48;10.10;;;8.80;99.90;;;6.54;100.00;100714.47;10503989;28;20056;-80
2022/11/08 10:26:22;;;;;;;25.27;10.60;;;8.80;99.90;;;6.63;100.00;100709.22;10505585;28;20053;-81
2022/11/08 10:31:34;;;;;;;25.50;11.13;;;8.90;99.90;;;6.77;100.00;100712.50;10487879;28;20057;-81
2022/11/08 10:36:46;;;;;;;28.93;12.57;;;9.10;99.90;;;6.91;100.00;100704.25;10521223;28;20707;-81
2022/11/08 10:42:16;;;;;;;28.23;11.83;;;9.20;99.90;;;7.00;100.00;100699.97;10501356;28;20064;-81
2022/11/08 10:47:28;;;;;;;27.30;12.90;;;9.30;99.90;;;7.07;100.00;100701.94;10502999;28;20488;-81
2022/11/08 10:52:45;;;;;;;21.07;10.00;;;9.40;99.90;;;7.08;100.00;100690.41;10504221;28;20112;-81
2022/11/08 10:57:48;;;;;;;22.90;11.77;;;9.40;99.90;;;7.11;100.00;100687.50;10478009;28;20061;-81
2022/11/08 11:03:14;;;;;;;22.07;10.17;;;9.50;99.90;;;7.10;100.00;100690.28;10488190;28;20090;-81
2022/11/08 11:08:17;;;;;;;24.53;10.67;;;9.50;99.90;;;7.15;100.00;100683.63;10485269;28;20065;-82
2022/11/08 11:13:26;;;;;;;22.70;10.37;;;9.50;99.90;;;7.24;100.00;100682.81;10500244;28;20145;-82
2022/11/08 11:18:48;;;;;;;26.87;12.77;;;9.50;99.90;;;7.25;100.00;100676.53;10477608;28;20062;-81
2022/11/08 11:23:57;;;;;;;24.60;11.13;;;9.50;99.90;;;7.28;100.00;100671.97;10451700;28;20060;-81
2022/11/08 11:29:02;;;;;;;27.53;11.97;;;9.50;99.90;;;7.30;100.00;100664.72;10517038;28;20084;-81
2022/11/08 11:34:18;;;;;;;28.70;12.03;;;9.50;99.90;;;7.37;100.00;100666.69;10500714;28;20065;-81
2022/11/08 11:39:45;;;;;;;26.57;10.70;;;9.60;99.90;;;7.46;100.00;100655.31;10500934;28;20085;-81
2022/11/08 11:45:14;;;;;;;20.80;9.13;;;9.60;99.90;;;7.60;100.00;100656.72;10502578;28;20564;-81
2022/11/08 11:50:27;;;;;;;23.43;10.67;;;9.80;99.90;;;7.65;100.00;100651.84;10517600;28;20059;-81
2022/11/08 11:55:42;;;;;;;25.17;11.43;;;9.80;99.90;;;7.66;100.00;100650.88;10500055;28;20064;-81
2022/11/08 12:00:58;;;;;;;22.43;11.00;;;9.90;99.90;;;7.73;100.00;100635.28;10498586;28;20061;-81
2022/11/08 12:06:11;;;;;;;25.90;11.60;;;9.90;99.90;;;7.85;100.00;100635.97;10472052;28;20060;-81
2022/11/08 12:11:48;;;;;;;26.00;10.83;;;10.00;99.90;;;7.96;100.00;100635.84;10489901;28;20103;-81
2022/11/08 12:17:31;;;;;;;24.10;11.47;;;10.20;99.90;;;8.04;100.00;100615.66;10483842;28;20057;-80
2022/11/08 12:22:57;;;;;;;30.23;13.77;;;10.30;99.90;;;8.18;100.00;100611.72;10518299;28;20594;-81
2022/11/08 12:28:07;;;;;;;23.23;10.63;;;10.40;99.90;;;8.38;100.00;100609.06;10497894;28;20068;-81
2022/11/08 12:33:41;;;;;;;24.40;10.87;;;10.60;99.90;;;8.52;100.00;100605.97;10475299;28;20144;-81
2022/11/08 12:38:58;;;;;;;25.17;11.30;;;10.80;99.90;;;8.63;100.00;100608.41;10494117;28;20467;-81
2022/11/08 12:44:13;;;;;;;24.40;11.10;;;10.80;99.90;;;8.76;100.00;100601.00;10483103;28;20065;-81
2022/11/08 12:49:43;;;;;;;19.97;9.87;;;10.90;99.90;;;8.75;100.00;100596.66;10484588;28;20442;-82
2022/11/08 12:55:08;;;;;;;30.77;13.47;;;11.00;99.90;;;8.67;100.00;100593.91;10465335;28;20053;-81
2022/11/08 13:00:18;;;;;;;31.90;14.43;;;10.90;99.90;;;8.64;100.00;100593.38;10467753;28;20468;-81
2022/11/08 13:05:30;;;;;;;33.63;15.37;;;10.80;99.90;;;8.62;100.00;100587.38;10448532;28;20057;-82
2022/11/08 13:10:54;;;;;;;;;;;10.80;99.90;;;8.68;100.00;100579.66;10465225;28;20152;-81
2022/11/08 13:16:13;;;;;;;28.13;14.40;;;10.90;99.90;;;8.78;100.00;100574.34;10499799;28;19929;-81
2022/11/08 13:21:33;;;;;;;34.57;18.17;;;11.00;99.90;;;8.96;100.00;100579.69;10500808;28;20135;-81
2022/11/08 13:26:41;;;;;;;36.33;18.30;;;11.20;99.90;;;9.13;100.00;100570.09;10505783;28;20065;-81
2022/11/08 13:31:50;;;;;;;26.33;13.50;;;11.40;99.90;;;9.34;100.00;100574.13;10490344;28;20057;-81
2022/11/08 13:37:41;;;;;;;29.00;14.50;;;11.60;99.90;;;9.49;100.00;100573.63;10486958;28;20064;-81
2022/11/08 13:43:06;;;;;;;27.20;12.73;;;11.70;99.90;;;9.58;100.00;100580.66;10511145;28;20057;-82
2022/11/08 13:48:35;;;;;;;30.30;14.90;;;11.80;99.90;;;9.60;100.00;100578.69;10503647;28;20532;-82
2022/11/08 13:53:57;;;;;;;32.57;15.57;;;11.80;99.90;;;9.54;100.00;100568.69;10515692;28;20056;-82
2022/11/08 13:58:59;;;;;;;;;;;11.80;99.90;;;9.50;100.00;100556.69;10519299;28;20061;-82
2022/11/08 14:04:29;;;;;;;45.30;18.50;;;11.70;99.90;;;9.44;100.00;100559.97;10459119;28;19975;-81
2022/11/08 14:10:00;;;;;;;40.20;18.23;;;11.70;99.90;;;9.41;100.00;100565.56;10519624;28;20489;-81
2022/11/08 14:15:21;;;;;;;42.47;19.20;;;11.70;99.90;;;9.29;100.00;100557.81;10494480;27;20146;-80
2022/11/08 14:20:45;;;;;;;38.27;18.47;;;11.60;99.90;;;9.17;100.00;100556.38;10485239;28;20452;-80
2022/11/08 14:26:22;;;;;;;45.53;21.37;;;11.40;99.90;;;9.03;100.00;100548.94;10492640;28;20445;-81
2022/11/08 14:31:31;;;;;;;36.73;16.27;;;11.30;99.90;;;8.93;100.00;100556.09;10497252;28;20103;-81
2022/11/08 14:36:34;;;;;;;36.87;16.97;;;11.20;99.90;;;8.84;100.00;100557.84;10481126;28;20057;-81
2022/11/08 14:41:38;;;;;;;26.33;13.40;;;11.10;99.90;;;8.74;100.00;100557.88;10482945;28;20056;-81
2022/11/08 14:46:41;;;;;;;26.30;13.80;;;11.00;99.90;;;8.69;100.00;100552.19;10500569;28;20427;-81
2022/11/08 14:51:45;;;;;;;24.57;12.30;;;10.90;99.90;;;8.70;100.00;100556.53;10458824;28;20153;-81
2022/11/08 14:56:49;;;;;;;26.30;14.20;;;10.90;99.90;;;8.68;100.00;100555.81;10493642;28;20061;-81
2022/11/08 15:01:52;;;;;;;22.13;11.53;;;11.00;99.90;;;8.69;100.00;100562.78;10515093;28;20064;-81
2022/11/08 15:06:57;;;;;;;28.63;13.33;;;10.90;99.90;;;8.66;100.00;100560.44;10493340;28;20586;-81
2022/11/08 15:12:22;;;;;;;24.23;11.97;;;10.90;99.90;;;8.61;100.00;100568.00;10500132;28;20135;-81
2022/11/08 15:17:33;;;;;;;19.37;9.93;;;10.80;99.90;;;8.55;100.00;100568.56;10477482;28;20053;-81
2022/11/08 15:22:36;;;;;;;19.77;10.45;;;10.70;99.90;;;8.47;100.00;100571.97;10514302;28;20053;-81
2022/11/08 15:27:55;;;;;;;23.13;11.33;;;10.70;99.90;;;8.35;100.00;100577.56;10480458;28;20063;-81
2022/11/08 15:32:58;;;;;;;22.67;11.53;;;10.60;99.90;;;8.24;100.00;100565.31;10491487;28;20063;-80
2022/11/08 15:38:05;;;;;;;26.23;12.57;;;10.50;99.90;;;8.17;100.00;100582.75;10496863;28;20512;-81
2022/11/08 15:43:43;;;;;;;31.47;16.17;;;10.40;99.90;;;8.13;100.00;100573.41;10518372;28;20065;-81
2022/11/08 15:48:57;;;;;;;27.33;11.50;;;10.40;99.90;;;8.07;100.00;100571.34;10533020;28;20515;-81
2022/11/08 15:54:00;;;;;;;24.43;13.27;;;10.40;99.90;;;8.08;100.00;100586.25;10500152;28;20061;-81
2022/11/08 15:59:03;;;;;;;28.13;12.93;;;10.30;99.90;;;8.06;100.00;100586.38;10499188;28;20053;-81
2022/11/08 16:04:12;;;;;;;28.90;15.40;;;10.30;99.90;;;8.05;100.00;100584.72;10497598;28;20084;-81
2022/11/08 16:09:14;;;;;;;34.60;15.97;;;10.30;99.90;;;8.04;100.00;100591.84;10500874;27;20060;-81
2022/11/08 16:14:21;;;;;;;34.30;17.17;;;10.30;99.90;;;8.03;100.00;100586.66;10471680;28;20057;-82
2022/11/08 16:19:24;;;;;;;35.20;18.47;;;10.30;99.90;;;8.01;100.00;100580.69;10530486;28;20134;-82
2022/11/08 16:24:27;;;;;;;35.73;17.57;;;10.30;99.90;;;7.96;100.00;100585.56;10490389;28;20060;-81
2022/11/08 16:29:33;;;;;;;38.60;17.53;;;10.20;99.90;;;7.94;100.00;100584.88;10528513;28;20091;-83
2022/11/08 16:34:36;;;;;;;47.40;21.60;;;10.20;99.90;;;7.93;100.00;100589.34;10521682;28;20057;-82
2022/11/08 16:39:39;;;;;;;40.23;19.47;;;10.10;99.90;;;7.96;100.00;100590.84;10487649;28;20462;-82
2022/11/08 16:44:43;;;;;;;36.80;18.20;;;10.20;99.90;;;7.99;100.00;100601.16;10475649;28;20061;-82
2022/11/08 16:49:47;;;;;;;45.37;26.67;;;10.20;99.90;;;8.00;100.00;100595.72;10538455;28;20067;-82
2022/11/08 16:54:53;;;;;;;35.93;16.80;;;10.30;99.90;;;8.01;100.00;100599.22;10502925;28;20053;-81
2022/11/08 16:59:56;;;;;;;35.73;16.53;;;10.20;99.90;;;7.98;100.00;100597.69;10512281;28;20061;-82
2022/11/08 17:04:59;;;;;;;34.70;16.13;;;10.20;99.90;;;7.97;100.00;100611.03;10462095;28;20057;-82
2022/11/08 17:10:02;;;;;;;37.73;16.40;;;10.20;99.90;;;7.95;100.00;100602.41;10494876;28;20088;-81
2022/11/08 17:15:12;;;;;;;33.60;15.80;;;10.20;99.90;;;7.92;100.00;100598.25;10471198;28;20548;-81
2022/11/08 17:20:18;;;;;;;36.93;18.53;;;10.20;99.90;;;7.92;100.00;100600.91;10505811;28;20053;-81
2022/11/08 17:25:23;;;;;;;72.73;29.73;;;10.10;99.90;;;7.90;100.00;100602.84;10480539;28;20141;-81
2022/11/08 17:30:26;;;;;;;51.40;23.17;;;10.10;99.90;;;7.88;100.00;100612.72;10520418;28;20142;-81
2022/11/08 17:35:29;;;;;;;52.40;21.70;;;10.10;99.90;;;7.86;100.00;100612.06;10516143;28;20052;-81
2022/11/08 17:40:32;;;;;;;43.13;20.37;;;10.10;99.90;;;7.86;100.00;100611.22;10500523;28;20107;-81
2022/11/08 17:45:35;;;;;;;38.63;19.73;;;10.10;99.90;;;7.78;100.00;100614.53;10477944;28;20092;-81
2022/11/08 17:50:38;;;;;;;35.47;16.50;;;10.10;99.90;;;7.70;100.00;100609.97;10505536;28;20061;-80
2022/11/08 17:55:41;;;;;;;38.87;16.50;;;10.00;99.90;;;7.62;100.00;100607.19;10489630;28;20421;-81
2022/11/08 18:00:44;;;;;;;33.27;16.23;;;9.90;99.90;;;7.58;100.00;100604.94;10501969;28;20191;-83
2022/11/08 18:05:59;;;;;;;34.70;14.97;;;9.80;99.90;;;7.56;100.00;100618.31;10486723;28;20068;-80
2022/11/08 18:11:03;;;;;;;35.53;16.03;;;9.80;99.90;;;7.54;100.00;100607.00;10528412;28;20063;-84
2022/11/08 18:16:14;;;;;;;37.03;16.30;;;9.80;99.90;;;7.53;100.00;100609.81;10508822;28;20064;-81
2022/11/08 18:21:18;;;;;;;41.55;16.58;;;9.80;99.90;;;7.51;100.00;100602.84;10483260;28;20063;-85
2022/11/08 18:26:21;;;;;;;34.23;15.07;;;9.80;99.90;;;7.48;100.00;100597.00;10486203;28;20552;-84
2022/11/08 18:31:25;;;;;;;41.53;16.30;;;9.80;99.90;;;7.48;100.00;100599.63;10486266;28;20068;-84
2022/11/08 18:36:29;;;;;;;41.57;15.50;;;9.70;99.90;;;7.52;100.00;100595.75;10497473;28;20148;-82
2022/11/08 18:41:32;;;;;;;36.70;14.77;;;9.80;99.90;;;7.55;100.00;100590.16;10490967;28;20579;-81
2022/11/08 18:46:36;;;;;;;34.93;14.43;;;9.80;99.90;;;7.57;100.00;100598.81;10498358;28;20056;-82
2022/11/08 18:51:50;;;;;;;44.87;16.17;;;9.80;99.90;;;7.59;100.00;100590.75;10488892;28;20053;-81
2022/11/08 18:56:53;;;;;;;47.97;18.40;;;9.80;99.90;;;7.59;100.00;100593.38;10476253;28;20058;-81
2022/11/08 19:01:56;;;;;;;40.33;18.17;;;9.80;99.90;;;7.60;100.00;100592.41;10463081;28;20566;-81
2022/11/08 19:06:59;;;;;;;49.57;19.67;;;9.80;99.90;;;7.61;100.00;100586.97;10475470;28;20072;-82
2022/11/08 19:12:02;;;;;;;41.80;16.70;;;9.80;99.90;;;7.61;100.00;100594.06;10494048;28;20060;-82
2022/11/08 19:17:08;;;;;;;41.17;15.13;;;9.90;99.90;;;7.65;100.00;100603.41;10483251;28;20068;-81
2022/11/08 19:22:11;;;;;;;33.03;13.63;;;9.90;99.90;;;7.68;100.00;100597.84;10506871;28;20061;-82
2022/11/08 19:27:14;;;;;;;40.60;13.67;;;9.90;99.90;;;7.68;100.00;100598.69;10498507;28;20057;-81
2022/11/08 19:32:16;;;;;;;41.37;14.97;;;9.90;99.90;;;7.68;100.00;100598.69;10516556;28;20060;-81
2022/11/08 19:37:19;;;;;;;48.90;15.27;;;9.90;99.90;;;7.68;100.00;100598.69;10482309;28;20477;-82
2022/11/08 19:42:22;;;;;;;39.17;13.57;;;9.90;99.90;;;7.69;100.00;100603.00;10470260;28;20390;-82
2022/11/08 19:47:26;;;;;;;27.30;11.00;;;9.90;99.90;;;7.71;100.00;100606.34;10460290;28;20574;-82
2022/11/08 19:52:28;;;;;;;35.17;13.57;;;9.90;99.90;;;7.73;100.00;100604.38;10482849;28;20138;-82
2022/11/08 19:57:33;;;;;;;33.57;13.63;;;9.90;99.90;;;7.74;100.00;100607.88;10488808;28;20416;-82
2022/11/08 20:02:37;;;;;;;44.17;16.50;;;10.00;99.90;;;7.75;100.00;100615.66;10485537;28;20057;-82
2022/11/08 20:07:44;;;;;;;36.37;14.23;;;10.00;99.90;;;7.77;100.00;100616.34;10475490;28;20061;-82
2022/11/08 20:12:47;;;;;;;37.97;12.57;;;10.00;99.90;;;7.79;100.00;100617.03;10488584;28;20563;-81
2022/11/08 20:17:50;;;;;;;40.37;14.67;;;10.00;99.90;;;7.79;100.00;100619.69;10510086;28;20072;-83
2022/11/08 20:22:53;;;;;;;33.87;14.13;;;10.00;99.90;;;7.81;100.00;100624.03;10519520;28;20057;-84
2022/11/08 20:27:55;;;;;;;40.83;16.10;;;10.10;99.90;;;7.79;100.00;100613.56;10497122;28;20088;-84
2022/11/08 20:32:59;;;;;;;38.20;16.10;;;10.10;99.90;;;7.82;100.00;100617.75;10484014;28;20092;-82
2022/11/08 20:38:02;;;;;;;41.53;16.87;;;10.10;99.90;;;7.83;100.00;100616.78;10476260;28;20057;-82
2022/11/08 20:43:05;;;;;;;33.80;13.93;;;10.10;99.90;;;7.85;100.00;100618.28;10521053;28;20139;-82
2022/11/08 20:48:08;;;;;;;34.43;15.10;;;10.10;99.90;;;7.84;100.00;100616.63;10526092;28;20057;-82
2022/11/08 20:53:10;;;;;;;34.40;13.73;;;10.10;99.90;;;7.82;100.00;100613.28;10465130;28;20175;-82
2022/11/08 20:58:13;;;;;;;31.57;13.83;;;10.10;99.90;;;7.84;100.00;100618.44;10432874;28;20549;-82
2022/11/08 21:03:16;;;;;;;32.97;14.07;;;10.10;99.90;;;7.83;100.00;100616.78;10473653;28;20300;-82
2022/11/08 21:08:22;;;;;;;28.03;12.57;;;10.10;99.90;;;7.84;100.00;100631.66;10493556;28;20064;-82
2022/11/08 21:13:45;;;;;;;34.30;13.60;;;10.10;99.90;;;7.84;100.00;100626.38;10493599;28;20064;-82
2022/11/08 21:18:48;;;;;;;35.53;13.93;;;10.10;99.90;;;7.84;100.00;100631.66;10487892;28;20071;-82
2022/11/08 21:23:53;;;;;;;33.73;14.57;;;10.10;99.90;;;7.83;100.00;100625.53;10509688;28;20115;-80